Time,TemperatureF,DewpointF,PressureIn,WindDirection,WindDirectionDegrees,WindSpeedMPH,WindSpeedGustMPH,Humidity,HourlyPrecipIn,Conditions,Clouds,dailyrainin,SoftwareType,DateUTC
2013-02-18 00:06:00,16.0,8.2,30.41,ESE,113,1.1,1.1,71,0.00,,,0.00,WUHU216HW,2013-02-18 05:06:00,
2013-02-18 00:21:00,15.7,7.9,30.41,ESE,113,1.3,1.3,71,0.00,,,0.00,WUHU216HW,2013-02-18 05:21:00,
2013-02-18 00:36:00,15.5,7.8,30.41,SE,135,0.9,0.9,71,0.00,,,0.00,WUHU216HW,2013-02-18 05:36:00,
2013-02-18 00:51:00,15.1,7.4,30.41,SSE,158,1.8,2.5,71,0.00,,,0.00,WUHU216HW,2013-02-18 05:51:00,
2013-02-18 01:06:00,14.8,7.0,30.41,ESE,113,1.8,2.7,71,0.00,,,0.00,WUHU216HW,2013-02-18 06:06:00,
2013-02-18 01:21:00,14.4,7.0,30.41,SSE,158,1.6,1.8,72,0.00,,,0.00,WUHU216HW,2013-02-18 06:21:00,
2013-02-18 01:36:00,14.0,6.7,30.41,East,90,1.1,2.0,72,0.00,,,0.00,WUHU216HW,2013-02-18 06:36:00,
2013-02-18 01:51:00,14.0,7.3,30.41,East,90,0.4,2.5,74,0.00,,,0.00,WUHU216HW,2013-02-18 06:51:00,
2013-02-18 02:06:00,13.9,7.1,30.42,SSW,203,1.6,2.0,74,0.00,,,0.00,WUHU216HW,2013-02-18 07:06:00,
2013-02-18 02:21:00,13.5,6.8,30.41,SSE,158,1.1,1.6,74,0.00,,,0.00,WUHU216HW,2013-02-18 07:21:00,
2013-02-18 02:36:00,13.5,7.0,30.41,ENE,68,1.3,2.5,75,0.00,,,0.00,WUHU216HW,2013-02-18 07:36:00,
2013-02-18 02:51:00,13.3,6.8,30.41,ENE,68,1.6,3.4,75,0.00,,,0.00,WUHU216HW,2013-02-18 07:51:00,
2013-02-18 03:06:00,13.1,6.7,30.41,ESE,113,0.9,1.8,75,0.00,,,0.00,WUHU216HW,2013-02-18 08:06:00,
2013-02-18 03:21:00,13.1,6.9,30.40,South,180,2.5,2.5,76,0.00,,,0.00,WUHU216HW,2013-02-18 08:21:00,
2013-02-18 03:36:00,13.0,6.8,30.40,East,90,1.1,2.9,76,0.00,,,0.00,WUHU216HW,2013-02-18 08:36:00,
2013-02-18 03:54:00,12.8,6.6,30.40,SSE,158,3.4,3.6,76,0.00,,,0.00,WUHU216HW,2013-02-18 08:54:00,
2013-02-18 04:11:00,13.1,7.2,30.40,SSE,158,0.9,3.6,77,0.00,,,0.00,WUHU216HW,2013-02-18 09:11:00,
2013-02-18 04:28:00,13.1,7.2,30.40,SE,135,2.9,2.9,77,0.00,,,0.00,WUHU216HW,2013-02-18 09:28:00,
2013-02-18 04:43:00,13.3,7.4,30.40,ESE,113,2.9,3.1,77,0.00,,,0.00,WUHU216HW,2013-02-18 09:43:00,
2013-02-18 04:59:00,13.1,7.2,30.40,SSE,158,1.8,4.7,77,0.00,,,0.00,WUHU216HW,2013-02-18 09:59:00,
2013-02-18 05:14:00,13.3,7.4,30.40,South,180,1.8,3.4,77,0.00,,,0.00,WUHU216HW,2013-02-18 10:14:00,
2013-02-18 05:29:00,13.3,7.4,30.40,SE,135,4.5,5.8,77,0.00,,,0.00,WUHU216HW,2013-02-18 10:29:00,
2013-02-18 05:44:00,13.3,7.8,30.39,SSE,158,2.5,4.0,78,0.00,,,0.00,WUHU216HW,2013-02-18 10:44:00,
2013-02-18 05:59:00,13.5,7.9,30.39,SE,135,2.2,4.7,78,0.00,,,0.00,WUHU216HW,2013-02-18 10:59:00,
2013-02-18 06:14:00,13.5,7.9,30.39,SSE,158,1.3,4.0,78,0.00,,,0.00,WUHU216HW,2013-02-18 11:14:00,
2013-02-18 06:29:00,13.7,7.7,30.38,SSE,158,3.4,6.0,77,0.00,,,0.00,WUHU216HW,2013-02-18 11:29:00,
2013-02-18 06:44:00,13.9,7.9,30.39,South,180,2.9,4.7,77,0.00,,,0.00,WUHU216HW,2013-02-18 11:44:00,
2013-02-18 06:59:00,13.7,7.7,30.38,SSE,158,4.7,6.0,77,0.00,,,0.00,WUHU216HW,2013-02-18 11:59:00,
2013-02-18 07:14:00,14.0,8.1,30.37,South,180,1.6,5.4,77,0.00,,,0.00,WUHU216HW,2013-02-18 12:14:00,
2013-02-18 07:29:00,14.4,8.5,30.37,South,180,6.7,6.9,77,0.00,,,0.00,WUHU216HW,2013-02-18 12:29:00,
2013-02-18 07:44:00,14.6,8.4,30.38,SSE,158,6.3,6.5,76,0.00,,,0.00,WUHU216HW,2013-02-18 12:44:00,
2013-02-18 07:59:00,14.8,8.6,30.37,SE,135,4.3,6.9,76,0.00,,,0.00,WUHU216HW,2013-02-18 12:59:00,
2013-02-18 08:14:00,15.8,9.3,30.36,SSW,203,3.8,7.4,75,0.00,,,0.00,WUHU216HW,2013-02-18 13:14:00,
2013-02-18 08:29:00,17.3,10.1,30.36,East,90,2.9,6.3,73,0.00,,,0.00,WUHU216HW,2013-02-18 13:29:00,
2013-02-18 08:44:00,18.7,10.5,30.36,SSE,158,3.4,6.9,70,0.00,,,0.00,WUHU216HW,2013-02-18 13:44:00,
2013-02-18 08:59:00,19.3,10.6,30.35,SSE,158,4.7,6.3,69,0.00,,,0.00,WUHU216HW,2013-02-18 13:59:00,
2013-02-18 09:14:00,20.2,10.9,30.35,SE,135,2.9,7.2,67,0.00,,,0.00,WUHU216HW,2013-02-18 14:14:00,
2013-02-18 09:30:00,22.1,12.4,30.33,East,90,3.4,5.4,66,0.00,,,0.00,WUHU216HW,2013-02-18 14:30:00,
2013-02-18 09:45:00,22.7,12.2,30.32,South,180,2.5,6.9,64,0.00,,,0.00,WUHU216HW,2013-02-18 14:45:00,
2013-02-18 10:00:00,23.8,13.0,30.32,SSW,203,3.4,7.4,63,0.00,,,0.00,WUHU216HW,2013-02-18 15:00:00,
2013-02-18 10:15:00,24.8,13.0,30.31,SSE,158,4.3,8.9,60,0.00,,,0.00,WUHU216HW,2013-02-18 15:15:00,
2013-02-18 10:30:00,26.6,14.1,30.30,SSE,158,4.7,8.9,59,0.00,,,0.00,WUHU216HW,2013-02-18 15:30:00,
2013-02-18 10:45:00,28.1,14.8,30.28,ESE,113,5.4,9.4,57,0.00,,,0.00,WUHU216HW,2013-02-18 15:45:00,
2013-02-18 11:00:00,28.4,13.9,30.28,NE,45,9.2,9.6,54,0.00,,,0.00,WUHU216HW,2013-02-18 16:00:00,
2013-02-18 11:15:00,29.7,15.0,30.26,ESE,113,4.3,8.9,54,0.00,,,0.00,WUHU216HW,2013-02-18 16:15:00,
2013-02-18 11:30:00,30.6,15.0,30.25,ESE,113,5.4,9.2,52,0.00,,,0.00,WUHU216HW,2013-02-18 16:30:00,
2013-02-18 11:45:00,31.3,15.3,30.24,ESE,113,8.5,9.8,51,0.00,,,0.00,WUHU216HW,2013-02-18 16:45:00,
2013-02-18 12:00:00,32.8,16.1,30.23,South,180,5.8,11.2,50,0.00,,,0.00,WUHU216HW,2013-02-18 17:00:00,
2013-02-18 12:16:00,33.5,16.3,30.21,SSE,158,6.7,13.4,49,0.00,,,0.00,WUHU216HW,2013-02-18 17:16:00,
2013-02-18 12:31:00,34.6,17.3,30.19,SSE,158,9.4,9.4,49,0.00,,,0.00,WUHU216HW,2013-02-18 17:31:00,
2013-02-18 12:46:00,34.9,17.6,30.18,SSW,203,5.4,9.8,49,0.00,,,0.00,WUHU216HW,2013-02-18 17:46:00,
2013-02-18 13:01:00,36.2,18.9,30.18,SSE,158,4.7,10.3,49,0.00,,,0.00,WUHU216HW,2013-02-18 18:01:00,
2013-02-18 13:16:00,36.4,19.0,30.18,SE,135,8.9,9.8,49,0.00,,,0.00,WUHU216HW,2013-02-18 18:16:00,
2013-02-18 13:31:00,37.1,19.2,30.18,SE,135,9.6,10.5,48,0.01,,,0.00,WUHU216HW,2013-02-18 18:31:00,
2013-02-18 13:46:00,37.8,19.8,30.18,SSW,203,5.1,10.3,48,0.01,,,0.00,WUHU216HW,2013-02-18 18:46:00,
2013-02-18 14:01:00,38.5,20.4,30.18,SE,135,5.1,8.5,48,0.01,,,0.00,WUHU216HW,2013-02-18 19:01:00,
2013-02-18 14:16:00,39.6,21.4,30.18,South,180,4.5,7.8,48,0.00,,,0.00,WUHU216HW,2013-02-18 19:16:00,
2013-02-18 14:31:00,41.0,22.7,30.17,SSE,158,4.0,5.4,48,0.00,,,0.00,WUHU216HW,2013-02-18 19:31:00,
2013-02-18 14:46:00,41.4,22.5,30.17,SE,135,4.7,6.0,47,0.00,,,0.00,WUHU216HW,2013-02-18 19:46:00,
2013-02-18 15:01:00,42.5,23.0,30.15,South,180,6.5,6.5,46,0.00,,,0.00,WUHU216HW,2013-02-18 20:01:00,
2013-02-18 15:16:00,42.3,23.4,30.15,SSE,158,6.5,6.9,47,0.00,,,0.00,WUHU216HW,2013-02-18 20:16:00,
2013-02-18 15:31:00,42.7,24.3,30.14,SSE,158,6.0,8.5,48,0.00,,,0.00,WUHU216HW,2013-02-18 20:31:00,
2013-02-18 15:46:00,42.8,24.5,30.13,SSE,158,6.9,9.4,48,0.00,,,0.00,WUHU216HW,2013-02-18 20:46:00,
2013-02-18 16:01:00,43.4,24.9,30.12,ESE,113,4.9,7.4,48,0.00,,,0.00,WUHU216HW,2013-02-18 21:01:00,
2013-02-18 16:17:00,43.2,24.9,30.11,SSE,158,3.4,7.6,48,0.00,,,0.00,WUHU216HW,2013-02-18 21:17:00,
2013-02-18 16:32:00,43.4,25.5,30.11,SE,135,6.3,9.2,49,0.00,,,0.00,WUHU216HW,2013-02-18 21:32:00,
2013-02-18 16:47:00,43.7,26.4,30.10,SE,135,4.0,7.8,50,0.00,,,0.00,WUHU216HW,2013-02-18 21:47:00,
2013-02-18 17:02:00,43.7,26.4,30.09,SSE,158,5.4,7.8,50,0.00,,,0.00,WUHU216HW,2013-02-18 22:02:00,
2013-02-18 17:17:00,43.6,26.6,30.10,SSE,158,4.9,7.6,51,0.00,,,0.00,WUHU216HW,2013-02-18 22:17:00,
2013-02-18 17:32:00,43.6,26.6,30.09,South,180,5.4,6.9,51,0.00,,,0.00,WUHU216HW,2013-02-18 22:32:00,
2013-02-18 17:47:00,43.4,26.9,30.08,SSE,158,8.3,8.3,52,0.00,,,0.00,WUHU216HW,2013-02-18 22:47:00,
2013-02-18 18:02:00,43.6,27.1,30.07,SSW,203,6.5,6.5,52,0.00,,,0.00,WUHU216HW,2013-02-18 23:02:00,
2013-02-18 18:17:00,43.2,27.2,30.07,East,90,8.1,8.3,53,0.01,,,0.02,WUHU216HW,2013-02-18 23:17:00,
2013-02-18 18:32:00,43.0,27.0,30.06,SSE,158,6.3,6.3,53,0.01,,,0.02,WUHU216HW,2013-02-18 23:32:00,
2013-02-18 18:47:00,42.8,26.8,30.06,South,180,4.7,8.9,53,0.01,,,0.02,WUHU216HW,2013-02-18 23:47:00,
2013-02-18 19:02:00,42.7,26.6,30.05,SSE,158,4.0,5.6,53,0.01,,,0.02,WUHU216HW,2013-02-19 00:02:00,
2013-02-18 19:17:00,42.5,26.9,30.05,SE,135,4.0,5.8,54,0.00,,,0.02,WUHU216HW,2013-02-19 00:17:00,
2013-02-18 19:33:00,42.3,26.7,30.04,WNW,293,3.1,6.3,54,0.00,,,0.02,WUHU216HW,2013-02-19 00:33:00,
2013-02-18 19:48:00,42.5,27.4,30.05,SE,135,4.0,7.4,55,0.00,,,0.02,WUHU216HW,2013-02-19 00:48:00,
2013-02-18 20:03:00,42.3,27.2,30.04,South,180,3.4,4.5,55,0.00,,,0.02,WUHU216HW,2013-02-19 01:03:00,
2013-02-18 20:18:00,42.5,27.8,30.03,ESE,113,4.9,5.8,56,0.00,,,0.02,WUHU216HW,2013-02-19 01:18:00,
2013-02-18 20:33:00,42.7,28.0,30.02,SSE,158,4.9,8.3,56,0.00,,,0.02,WUHU216HW,2013-02-19 01:33:00,
2013-02-18 20:48:00,42.8,28.2,30.02,SSE,158,4.0,7.8,56,0.00,,,0.02,WUHU216HW,2013-02-19 01:48:00,
2013-02-18 21:03:00,43.0,28.4,30.01,SSW,203,3.1,6.9,56,0.00,,,0.02,WUHU216HW,2013-02-19 02:03:00,
2013-02-18 21:18:00,43.2,28.9,30.00,ENE,68,2.5,7.2,57,0.00,,,0.02,WUHU216HW,2013-02-19 02:18:00,
2013-02-18 21:33:00,43.6,29.3,29.99,SE,135,5.4,6.0,57,0.00,,,0.02,WUHU216HW,2013-02-19 02:33:00,
2013-02-18 21:48:00,43.7,29.4,29.98,South,180,4.0,6.3,57,0.00,,,0.02,WUHU216HW,2013-02-19 02:48:00,
2013-02-18 22:03:00,43.9,29.6,29.97,SE,135,4.9,6.9,57,0.00,,,0.02,WUHU216HW,2013-02-19 03:03:00,
2013-02-18 22:19:00,44.5,30.2,29.96,SSE,158,5.4,5.8,57,0.00,,,0.02,WUHU216HW,2013-02-19 03:19:00,
2013-02-18 22:34:00,45.0,30.7,29.95,SSE,158,3.4,6.7,57,0.00,,,0.02,WUHU216HW,2013-02-19 03:34:00,
2013-02-18 22:49:00,45.4,31.0,29.94,SW,225,4.5,6.5,57,0.00,,,0.02,WUHU216HW,2013-02-19 03:49:00,
2013-02-18 23:04:00,45.7,31.3,29.92,ESE,113,3.1,6.0,57,0.00,,,0.02,WUHU216HW,2013-02-19 04:04:00,
2013-02-18 23:19:00,46.1,31.6,29.91,South,180,4.3,5.6,57,0.00,,,0.02,WUHU216HW,2013-02-19 04:19:00,
2013-02-18 23:34:00,46.6,31.7,29.91,ESE,113,4.7,7.2,56,0.00,,,0.02,WUHU216HW,2013-02-19 04:34:00,
2013-02-18 23:49:00,47.0,32.1,29.90,ESE,113,4.7,7.6,56,0.00,,,0.02,WUHU216HW,2013-02-19 04:49:00,